Oval Lp No.11 — JL6306 — position and weather

sailwx.info

Track history (hours):
 
Tides and Currents Weather Stations Pressure Air Temp Water Temp Dewpoint Dewpoint Depression Visibility Wind Speed Wind Dir Waves Ship Positions

Oval Lp No.11

Last reported at 2015-Apr-23 03:31 UTC. Time now 2015-May-06 05:26 UTC.
Position N 34°12' E 134°40'.
Warning: this ship's position is 13 days out of date.

Length 67 m; draft 3.6 m.

Type: Ship (hazmat cat A). MMSI: 431500366.

Date/timePositionNaut miles runAvg speedWind from/ knotsBaromVisibWave heightAir tempDewpointWater temp
2015-Apr-23 03:31N 34°12' E 134°40'246 9.9
2015-Apr-22 02:31N 35°02' E 139°33'1212.2
2015-Apr-22 01:33N 35°10' E 139°45'1211.7
2015-Apr-22 00:33N 35°21' E 139°42'1212.2
2015-Apr-21 23:33N 35°31' E 139°52'5 3.6
2015-Apr-21 22:05N 35°36' E 139°54'0 0.0
2015-Apr-21 21:26N 35°36' E 139°54'0 0.0
2015-Apr-21 20:29N 35°36' E 139°54'0 0.0
2015-Apr-21 19:29N 35°36' E 139°54'0 0.0
2015-Apr-21 18:29N 35°36' E 139°54'0 0.0
2015-Apr-21 17:29N 35°36' E 139°54'0 0.0
2015-Apr-21 14:23N 35°36' E 139°54'0 0.0
2015-Apr-21 13:23N 35°36' E 139°54'0 0.0
2015-Apr-21 12:29N 35°36' E 139°54'0 0.0
2015-Apr-21 11:29N 35°36' E 139°54'0 0.0
2015-Apr-21 10:29N 35°36' E 139°54'0 0.0
2015-Apr-21 09:29N 35°36' E 139°54'0 0.0
2015-Apr-21 08:29N 35°36' E 139°54'0 0.0
2015-Apr-21 07:23N 35°36' E 139°54'0 0.0
2015-Apr-21 06:23N 35°36' E 139°54'0 0.0
2015-Apr-21 05:29N 35°36' E 139°54'0 0.0
2015-Apr-21 04:29N 35°36' E 139°54'0 0.0
2015-Apr-21 03:05N 35°36' E 139°54'0 0.0
2015-Apr-21 02:29N 35°36' E 139°54'0 0.0
2015-Apr-21 01:23N 35°36' E 139°54'0 0.1
2015-Apr-21 00:29N 35°36' E 139°54'0 0.1
2015-Apr-20 23:29N 35°36' E 139°54'0 0.0
2015-Apr-20 22:24N 35°36' E 139°54'0 0.0
2015-Apr-20 21:25N 35°36' E 139°54'0 0.0
2015-Apr-20 20:31N 35°36' E 139°54'0 0.0
2015-Apr-20 19:31N 35°36' E 139°54'0 0.0
2015-Apr-20 18:31N 35°36' E 139°54'0 0.0
2015-Apr-20 17:32N 35°36' E 139°54'0 0.0
2015-Apr-20 16:33N 35°36' E 139°54'0 0.0
2015-Apr-20 15:26N 35°36' E 139°54'0 0.0
2015-Apr-20 14:32N 35°36' E 139°54'0 0.0
2015-Apr-20 13:29N 35°36' E 139°54'0 0.0
2015-Apr-20 12:33N 35°36' E 139°54'0 0.0
2015-Apr-20 11:33N 35°36' E 139°54'0 0.0
2015-Apr-20 10:27N 35°36' E 139°54'0 0.0
2015-Apr-20 09:30N 35°36' E 139°54'0 0.0
2015-Apr-20 08:32N 35°36' E 139°54'0 0.0
2015-Apr-20 07:33N 35°36' E 139°54'0 0.0
2015-Apr-20 06:33N 35°36' E 139°54'4 3.8
2015-Apr-20 05:33N 35°35' E 139°58'6 5.2
2015-Apr-20 04:26N 35°33' E 140°05'0 0.0
2015-Apr-20 03:32N 35°33' E 140°05'0 0.0
2015-Apr-20 02:32N 35°33' E 140°05'0 0.0
2015-Apr-20 01:32N 35°33' E 140°05'1 0.7
2015-Apr-20 00:26N 35°33' E 140°05'0 0.0
2015-Apr-19 23:29N 35°33' E 140°05'0 0.0
2015-Apr-19 22:20N 35°33' E 140°05'0 0.0
2015-Apr-19 21:32N 35°33' E 140°05'0 0.0
2015-Apr-19 20:26N 35°33' E 140°05'0 0.0
2015-Apr-19 19:32N 35°33' E 140°05'0 0.0
2015-Apr-19 18:20N 35°33' E 140°05'0 0.0
2015-Apr-19 17:32N 35°33' E 140°05'0 0.0
2015-Apr-19 16:14N 35°33' E 140°05'0 0.1
2015-Apr-19 15:26N 35°33' E 140°05'0 0.0
2015-Apr-19 13:20N 35°33' E 140°05'0 0.0
2015-Apr-19 12:20N 35°33' E 140°05'0 0.0
2015-Apr-19 11:32N 35°33' E 140°05'0 0.0
2015-Apr-19 10:26N 35°33' E 140°05'0 0.0
2015-Apr-19 09:32N 35°33' E 140°05'0 0.0
2015-Apr-19 08:20N 35°33' E 140°05'0 0.0
2015-Apr-19 07:20N 35°33' E 140°05'0 0.0
2015-Apr-19 06:26N 35°33' E 140°05'0 0.0
2015-Apr-19 04:32N 35°33' E 140°05'0 0.0
2015-Apr-19 03:32N 35°33' E 140°05'0 0.0
2015-Apr-19 02:20N 35°33' E 140°05'0 0.0
2015-Apr-19 01:20N 35°33' E 140°05'0 0.0
2015-Apr-19 00:26N 35°33' E 140°05'0 0.0
2015-Apr-18 23:32N 35°33' E 140°05'0 0.1
2015-Apr-18 22:32N 35°33' E 140°05'0 0.0
2015-Apr-18 21:26N 35°33' E 140°05'0 0.0
2015-Apr-18 20:32N 35°33' E 140°05'0 0.0
2015-Apr-18 19:32N 35°33' E 140°05'0 0.0
2015-Apr-18 17:32N 35°33' E 140°05'0 0.0
2015-Apr-18 16:32N 35°33' E 140°05'0 0.0
2015-Apr-18 15:26N 35°33' E 140°05'0 0.0
2015-Apr-18 14:26N 35°33' E 140°05'0 0.0
2015-Apr-18 13:14N 35°33' E 140°05'0 0.0
2015-Apr-18 12:28N 35°33' E 140°05'0 0.0
2015-Apr-18 11:33N 35°33' E 140°05'0 0.0
2015-Apr-18 10:33N 35°33' E 140°05'0 0.0
2015-Apr-18 09:19N 35°33' E 140°05'0 0.0
2015-Apr-18 08:31N 35°33' E 140°05'0 0.0
2015-Apr-18 07:19N 35°33' E 140°05'0 0.0
2015-Apr-18 06:31N 35°33' E 140°05'0 0.0
2015-Apr-18 05:31N 35°33' E 140°05'0 0.0
2015-Apr-18 04:31N 35°33' E 140°05'0 0.0
2015-Apr-18 03:31N 35°33' E 140°05'0 0.0
2015-Apr-18 02:07N 35°33' E 140°05'0 0.0
2015-Apr-18 01:31N 35°33' E 140°05'0 0.0
2015-Apr-18 00:31N 35°33' E 140°05'0 0.0
2015-Apr-17 23:19N 35°33' E 140°05'0 0.1
2015-Apr-17 22:25N 35°33' E 140°05'0 0.0
2015-Apr-17 21:25N 35°33' E 140°05'0 0.0
2015-Apr-17 20:31N 35°33' E 140°05'0 0.0
2015-Apr-17 18:13N 35°33' E 140°05'0 0.0
2015-Apr-17 17:31N 35°33' E 140°05'0 0.0
2015-Apr-17 16:31N 35°33' E 140°05'0 0.1
2015-Apr-17 15:31N 35°33' E 140°05'0 0.0
2015-Apr-17 14:25N 35°33' E 140°05'0 0.1
2015-Apr-17 13:25N 35°33' E 140°05'0 0.0
2015-Apr-17 12:25N 35°33' E 140°05'0 0.0
2015-Apr-17 11:31N 35°33' E 140°05'0 0.0
2015-Apr-17 10:31N 35°33' E 140°05'0 0.0
2015-Apr-17 09:31N 35°33' E 140°05'0 0.0
2015-Apr-17 08:19N 35°33' E 140°05'0 0.1
2015-Apr-17 07:07N 35°33' E 140°05'0 0.0
2015-Apr-17 06:31N 35°33' E 140°05'0 0.0
2015-Apr-17 05:19N 35°33' E 140°05'0 0.0
2015-Apr-17 04:19N 35°33' E 140°05'0 0.0
2015-Apr-17 03:31N 35°33' E 140°05'5 5.2
2015-Apr-17 02:33N 35°32' E 139°59'1211.8
2015-Apr-17 01:33N 35°25' E 139°47'1010.4
2015-Apr-17 00:33N 35°15' E 139°47'1111.4
2015-Apr-16 23:33N 35°04' E 139°41'1111.3
2015-Apr-16 22:34N 34°57' E 139°31'227 9.8
2015-Apr-15 23:33N 34°06' E 135°03'4 3.9
2015-Apr-15 22:29N 34°07' E 135°08'0 0.0
2015-Apr-15 21:30N 34°07' E 135°08'0 0.0
2015-Apr-15 20:12N 34°07' E 135°08'0 0.0
2015-Apr-15 19:30N 34°07' E 135°08'0 0.0
2015-Apr-15 18:30N 34°07' E 135°08'0 0.0
2015-Apr-15 17:12N 34°07' E 135°08'0 0.0
2015-Apr-15 16:27N 34°07' E 135°08'1 0.1
2015-Apr-15 06:28N 34°07' E 135°08'9 9.7
2015-Apr-15 05:33N 34°13' E 134°60'1210.8
2015-Apr-15 04:27N 34°24' E 135°04'1111.8
2015-Apr-15 03:33N 34°30' E 135°15'1010.0
2015-Apr-15 02:32N 34°36' E 135°25'1 0.4
2015-Apr-14 23:06N 34°34' E 135°26'1 1.8
2015-Apr-14 22:32N 34°35' E 135°25'2 1.3
2015-Apr-14 21:07N 34°36' E 135°23'0 0.0
2015-Apr-14 20:31N 34°36' E 135°23'0 0.0
2015-Apr-14 19:31N 34°36' E 135°23'5 4.8
2015-Apr-14 18:34N 34°33' E 135°19'1211.5
2015-Apr-14 17:33N 34°25' E 135°08'1211.1
2015-Apr-14 16:30N 34°16' E 134°60'1010.0
2015-Apr-14 15:33N 34°06' E 135°01'  
Track history (hours):
 
Tides and Currents Weather Stations Pressure Air Temp Water Temp Dewpoint Dewpoint Depression Visibility Wind Speed Wind Dir Waves Ship Positions

Oval Lp No.11

Last reported at 2015-Apr-23 03:31 UTC. Time now 2015-May-06 05:26 UTC.
Position N 34°12' E 134°40'.
Warning: this ship's position is 13 days out of date.

Length 67 m; draft 3.6 m.

Type: Ship (hazmat cat A). MMSI: 431500366.

Date/timePositionNaut miles runAvg speedWind from/ knotsBaromVisibWave heightAir tempDewpointWater temp
2015-Apr-23 03:31N 34°12' E 134°40'246 9.9
2015-Apr-22 02:31N 35°02' E 139°33'1212.2
2015-Apr-22 01:33N 35°10' E 139°45'1211.7
2015-Apr-22 00:33N 35°21' E 139°42'1212.2
2015-Apr-21 23:33N 35°31' E 139°52'5 3.6
2015-Apr-21 22:05N 35°36' E 139°54'0 0.0
2015-Apr-21 21:26N 35°36' E 139°54'0 0.0
2015-Apr-21 20:29N 35°36' E 139°54'0 0.0
2015-Apr-21 19:29N 35°36' E 139°54'0 0.0
2015-Apr-21 18:29N 35°36' E 139°54'0 0.0
2015-Apr-21 17:29N 35°36' E 139°54'0 0.0
2015-Apr-21 14:23N 35°36' E 139°54'0 0.0
2015-Apr-21 13:23N 35°36' E 139°54'0 0.0
2015-Apr-21 12:29N 35°36' E 139°54'0 0.0
2015-Apr-21 11:29N 35°36' E 139°54'0 0.0
2015-Apr-21 10:29N 35°36' E 139°54'0 0.0
2015-Apr-21 09:29N 35°36' E 139°54'0 0.0
2015-Apr-21 08:29N 35°36' E 139°54'0 0.0
2015-Apr-21 07:23N 35°36' E 139°54'0 0.0
2015-Apr-21 06:23N 35°36' E 139°54'0 0.0
2015-Apr-21 05:29N 35°36' E 139°54'0 0.0
2015-Apr-21 04:29N 35°36' E 139°54'0 0.0
2015-Apr-21 03:05N 35°36' E 139°54'0 0.0
2015-Apr-21 02:29N 35°36' E 139°54'0 0.0
2015-Apr-21 01:23N 35°36' E 139°54'0 0.1
2015-Apr-21 00:29N 35°36' E 139°54'0 0.1
2015-Apr-20 23:29N 35°36' E 139°54'0 0.0
2015-Apr-20 22:24N 35°36' E 139°54'0 0.0
2015-Apr-20 21:25N 35°36' E 139°54'0 0.0
2015-Apr-20 20:31N 35°36' E 139°54'0 0.0
2015-Apr-20 19:31N 35°36' E 139°54'0 0.0
2015-Apr-20 18:31N 35°36' E 139°54'0 0.0
2015-Apr-20 17:32N 35°36' E 139°54'0 0.0
2015-Apr-20 16:33N 35°36' E 139°54'0 0.0
2015-Apr-20 15:26N 35°36' E 139°54'0 0.0
2015-Apr-20 14:32N 35°36' E 139°54'0 0.0
2015-Apr-20 13:29N 35°36' E 139°54'0 0.0
2015-Apr-20 12:33N 35°36' E 139°54'0 0.0
2015-Apr-20 11:33N 35°36' E 139°54'0 0.0
2015-Apr-20 10:27N 35°36' E 139°54'0 0.0
2015-Apr-20 09:30N 35°36' E 139°54'0 0.0
2015-Apr-20 08:32N 35°36' E 139°54'0 0.0
2015-Apr-20 07:33N 35°36' E 139°54'0 0.0
2015-Apr-20 06:33N 35°36' E 139°54'4 3.8
2015-Apr-20 05:33N 35°35' E 139°58'6 5.2
2015-Apr-20 04:26N 35°33' E 140°05'0 0.0
2015-Apr-20 03:32N 35°33' E 140°05'0 0.0
2015-Apr-20 02:32N 35°33' E 140°05'0 0.0
2015-Apr-20 01:32N 35°33' E 140°05'1 0.7
2015-Apr-20 00:26N 35°33' E 140°05'0 0.0
2015-Apr-19 23:29N 35°33' E 140°05'0 0.0
2015-Apr-19 22:20N 35°33' E 140°05'0 0.0
2015-Apr-19 21:32N 35°33' E 140°05'0 0.0
2015-Apr-19 20:26N 35°33' E 140°05'0 0.0
2015-Apr-19 19:32N 35°33' E 140°05'0 0.0
2015-Apr-19 18:20N 35°33' E 140°05'0 0.0
2015-Apr-19 17:32N 35°33' E 140°05'0 0.0
2015-Apr-19 16:14N 35°33' E 140°05'0 0.1
2015-Apr-19 15:26N 35°33' E 140°05'0 0.0
2015-Apr-19 13:20N 35°33' E 140°05'0 0.0
2015-Apr-19 12:20N 35°33' E 140°05'0 0.0
2015-Apr-19 11:32N 35°33' E 140°05'0 0.0
2015-Apr-19 10:26N 35°33' E 140°05'0 0.0
2015-Apr-19 09:32N 35°33' E 140°05'0 0.0
2015-Apr-19 08:20N 35°33' E 140°05'0 0.0
2015-Apr-19 07:20N 35°33' E 140°05'0 0.0
2015-Apr-19 06:26N 35°33' E 140°05'0 0.0
2015-Apr-19 04:32N 35°33' E 140°05'0 0.0
2015-Apr-19 03:32N 35°33' E 140°05'0 0.0
2015-Apr-19 02:20N 35°33' E 140°05'0 0.0
2015-Apr-19 01:20N 35°33' E 140°05'0 0.0
2015-Apr-19 00:26N 35°33' E 140°05'0 0.0
2015-Apr-18 23:32N 35°33' E 140°05'0 0.1
2015-Apr-18 22:32N 35°33' E 140°05'0 0.0
2015-Apr-18 21:26N 35°33' E 140°05'0 0.0
2015-Apr-18 20:32N 35°33' E 140°05'0 0.0
2015-Apr-18 19:32N 35°33' E 140°05'0 0.0
2015-Apr-18 17:32N 35°33' E 140°05'0 0.0
2015-Apr-18 16:32N 35°33' E 140°05'0 0.0
2015-Apr-18 15:26N 35°33' E 140°05'0 0.0
2015-Apr-18 14:26N 35°33' E 140°05'0 0.0
2015-Apr-18 13:14N 35°33' E 140°05'0 0.0
2015-Apr-18 12:28N 35°33' E 140°05'0 0.0
2015-Apr-18 11:33N 35°33' E 140°05'0 0.0
2015-Apr-18 10:33N 35°33' E 140°05'0 0.0
2015-Apr-18 09:19N 35°33' E 140°05'0 0.0
2015-Apr-18 08:31N 35°33' E 140°05'0 0.0
2015-Apr-18 07:19N 35°33' E 140°05'0 0.0
2015-Apr-18 06:31N 35°33' E 140°05'0 0.0
2015-Apr-18 05:31N 35°33' E 140°05'0 0.0
2015-Apr-18 04:31N 35°33' E 140°05'0 0.0
2015-Apr-18 03:31N 35°33' E 140°05'0 0.0
2015-Apr-18 02:07N 35°33' E 140°05'0 0.0
2015-Apr-18 01:31N 35°33' E 140°05'0 0.0
2015-Apr-18 00:31N 35°33' E 140°05'0 0.0
2015-Apr-17 23:19N 35°33' E 140°05'0 0.1
2015-Apr-17 22:25N 35°33' E 140°05'0 0.0
2015-Apr-17 21:25N 35°33' E 140°05'0 0.0
2015-Apr-17 20:31N 35°33' E 140°05'0 0.0
2015-Apr-17 18:13N 35°33' E 140°05'0 0.0
2015-Apr-17 17:31N 35°33' E 140°05'0 0.0
2015-Apr-17 16:31N 35°33' E 140°05'0 0.1
2015-Apr-17 15:31N 35°33' E 140°05'0 0.0
2015-Apr-17 14:25N 35°33' E 140°05'0 0.1
2015-Apr-17 13:25N 35°33' E 140°05'0 0.0
2015-Apr-17 12:25N 35°33' E 140°05'0 0.0
2015-Apr-17 11:31N 35°33' E 140°05'0 0.0
2015-Apr-17 10:31N 35°33' E 140°05'0 0.0
2015-Apr-17 09:31N 35°33' E 140°05'0 0.0
2015-Apr-17 08:19N 35°33' E 140°05'0 0.1
2015-Apr-17 07:07N 35°33' E 140°05'0 0.0
2015-Apr-17 06:31N 35°33' E 140°05'0 0.0
2015-Apr-17 05:19N 35°33' E 140°05'0 0.0
2015-Apr-17 04:19N 35°33' E 140°05'0 0.0
2015-Apr-17 03:31N 35°33' E 140°05'5 5.2
2015-Apr-17 02:33N 35°32' E 139°59'1211.8
2015-Apr-17 01:33N 35°25' E 139°47'1010.4
2015-Apr-17 00:33N 35°15' E 139°47'1111.4
2015-Apr-16 23:33N 35°04' E 139°41'1111.3
2015-Apr-16 22:34N 34°57' E 139°31'227 9.8
2015-Apr-15 23:33N 34°06' E 135°03'4 3.9
2015-Apr-15 22:29N 34°07' E 135°08'0 0.0
2015-Apr-15 21:30N 34°07' E 135°08'0 0.0
2015-Apr-15 20:12N 34°07' E 135°08'0 0.0
2015-Apr-15 19:30N 34°07' E 135°08'0 0.0
2015-Apr-15 18:30N 34°07' E 135°08'0 0.0
2015-Apr-15 17:12N 34°07' E 135°08'0 0.0
2015-Apr-15 16:27N 34°07' E 135°08'1 0.1
2015-Apr-15 06:28N 34°07' E 135°08'9 9.7
2015-Apr-15 05:33N 34°13' E 134°60'1210.8
2015-Apr-15 04:27N 34°24' E 135°04'1111.8
2015-Apr-15 03:33N 34°30' E 135°15'1010.0
2015-Apr-15 02:32N 34°36' E 135°25'1 0.4
2015-Apr-14 23:06N 34°34' E 135°26'1 1.8
2015-Apr-14 22:32N 34°35' E 135°25'2 1.3
2015-Apr-14 21:07N 34°36' E 135°23'0 0.0
2015-Apr-14 20:31N 34°36' E 135°23'0 0.0
2015-Apr-14 19:31N 34°36' E 135°23'5 4.8
2015-Apr-14 18:34N 34°33' E 135°19'1211.5
2015-Apr-14 17:33N 34°25' E 135°08'1211.1
2015-Apr-14 16:30N 34°16' E 134°60'1010.0
2015-Apr-14 15:33N 34°06' E 135°01'  

Dump ship's entire track history